CNZ6 weather

Georgetown (Georgetown & District Hospital) Heliport
Georgetown, Ontario, Canada

Public forecast

Using degrees Celsius for public forecast. Weather courtesy of forecast.io.

Closest aviation weather report (METAR) to Georgetown (Georgetown & District Hospital) Heliport

Closest report is Lester B. Pearson International Airport, 13.3 nm (24.7 km) E. Retrieved 2019/11/14 05:00 UTC (41 minutes ago):

CYYZ 140500Z 17010KT 15SM SCT038 OVC110 M02/M05 A3017 RMK SC3AC5 SLP227

Closest aviation forecast (TAF) to Georgetown (Georgetown & District Hospital) Heliport

Closest forecast is Lester B. Pearson International Airport, 13.3 nm (24.7 km) E. Retrieved 2019-11-14 03:41 UTC (2 hours ago):

TAF CYYZ 140238Z 1403/1506 15010KT 3SM -SN SCT008 OVC015 TEMPO 1403/1404 P6SM -SN SCT015 OVC040 FM140400 15008KT P6SM SCT030 OVC080 TEMPO 1404/1405 5SM -SN BKN020 OVC050 FM140800 19008KT 11/2SM -SN BKN007 OVC015 TEMPO 1408/1416 P6SM -SN SCT015 OVC030 BECMG 1412/1414 24010KT FM141600 24010G20KT P6SM -SN BKN030 OVC060 TEMPO 1416/1418 2SM -SN OVC020 FM142100 24010KT P6SM FEW030 BKN060 FM150400 24010KT P6SM FEW050 RMK NXT FCST BY 140600Z